sensor_id;sensor_type;location;lat;lon;timestamp;pressure;altitude;pressure_sealevel;temperature;humidity
47530;BME280;33272;51.922;7.730;2023-11-21T00:01:33;144296.53;;;7.24;100.00
47530;BME280;33272;51.922;7.730;2023-11-21T00:04:00;144312.94;;;7.31;100.00
47530;BME280;33272;51.922;7.730;2023-11-21T00:06:27;144333.19;;;7.39;100.00
47530;BME280;33272;51.922;7.730;2023-11-21T00:08:55;144355.94;;;7.48;100.00
47530;BME280;33272;51.922;7.730;2023-11-21T00:11:22;144374.88;;;7.56;100.00
47530;BME280;33272;51.922;7.730;2023-11-21T00:13:51;144387.53;;;7.61;100.00
47530;BME280;33272;51.922;7.730;2023-11-21T00:16:18;144400.22;;;7.66;100.00
47530;BME280;33272;51.922;7.730;2023-11-21T00:18:46;144411.56;;;7.71;100.00
47530;BME280;33272;51.922;7.730;2023-11-21T00:21:13;144419.16;;;7.74;100.00
47530;BME280;33272;51.922;7.730;2023-11-21T00:23:40;144424.22;;;7.76;100.00
47530;BME280;33272;51.922;7.730;2023-11-21T00:26:07;144430.50;;;7.78;100.00
47530;BME280;33272;51.922;7.730;2023-11-21T00:28:34;144434.31;;;7.80;100.00
47530;BME280;33272;51.922;7.730;2023-11-21T00:31:01;144441.91;;;7.83;100.00
47530;BME280;33272;51.922;7.730;2023-11-21T00:33:29;144455.84;;;7.88;100.00
47530;BME280;33272;51.922;7.730;2023-11-21T00:35:58;144467.19;;;7.93;100.00
47530;BME280;33272;51.922;7.730;2023-11-21T00:38:25;144474.78;;;7.96;100.00
47530;BME280;33272;51.922;7.730;2023-11-21T00:40:53;144487.44;;;8.01;100.00
47530;BME280;33272;51.922;7.730;2023-11-21T00:43:22;144498.81;;;8.06;100.00
47530;BME280;33272;51.922;7.730;2023-11-21T00:45:49;144508.91;;;8.10;100.00
47530;BME280;33272;51.922;7.730;2023-11-21T00:48:17;144517.81;;;8.13;100.00
47530;BME280;33272;51.922;7.730;2023-11-21T00:50:44;144527.91;;;8.18;100.00
47530;BME280;33272;51.922;7.730;2023-11-21T00:53:13;144534.25;;;8.20;100.00
47530;BME280;33272;51.922;7.730;2023-11-21T00:55:40;144543.09;;;8.24;100.00
47530;BME280;33272;51.922;7.730;2023-11-21T00:58:07;144546.84;;;8.25;100.00
47530;BME280;33272;51.922;7.730;2023-11-21T01:00:34;144548.13;;;8.26;100.00
47530;BME280;33272;51.922;7.730;2023-11-21T01:03:01;144554.44;;;8.28;100.00
47530;BME280;33272;51.922;7.730;2023-11-21T01:05:28;144563.28;;;8.32;100.00
47530;BME280;33272;51.922;7.730;2023-11-21T01:07:55;144564.59;;;8.32;100.00
47530;BME280;33272;51.922;7.730;2023-11-21T01:10:23;144574.72;;;8.36;100.00
47530;BME280;33272;51.922;7.730;2023-11-21T01:12:50;144579.84;;;8.39;100.00
47530;BME280;33272;51.922;7.730;2023-11-21T01:15:17;144588.69;;;8.42;100.00
47530;BME280;33272;51.922;7.730;2023-11-21T01:17:46;144607.63;;;8.50;100.00
47530;BME280;33272;51.922;7.730;2023-11-21T01:20:13;144607.63;;;8.50;100.00
47530;BME280;33272;51.922;7.730;2023-11-21T01:22:41;144629.16;;;8.58;100.00
47530;BME280;33272;51.922;7.730;2023-11-21T01:25:09;144626.66;;;8.57;100.00
47530;BME280;33272;51.922;7.730;2023-11-21T01:27:37;144625.34;;;8.57;100.00
47530;BME280;33272;51.922;7.730;2023-11-21T01:30:06;144634.19;;;8.61;100.00
47530;BME280;33272;51.922;7.730;2023-11-21T01:32:34;144650.69;;;8.67;100.00
47530;BME280;33272;51.922;7.730;2023-11-21T01:35:01;144649.38;;;8.67;100.00
47530;BME280;33272;51.922;7.730;2023-11-21T01:37:28;144654.47;;;8.69;100.00
47530;BME280;33272;51.922;7.730;2023-11-21T01:39:56;144656.97;;;8.70;100.00
47530;BME280;33272;51.922;7.730;2023-11-21T01:42:23;144663.31;;;8.72;100.00
47530;BME280;33272;51.922;7.730;2023-11-21T01:44:51;144665.88;;;8.73;100.00
47530;BME280;33272;51.922;7.730;2023-11-21T01:47:20;144669.66;;;8.75;100.00
47530;BME280;33272;51.922;7.730;2023-11-21T01:49:47;144673.47;;;8.76;100.00
47530;BME280;33272;51.922;7.730;2023-11-21T01:52:14;144674.72;;;8.77;100.00
47530;BME280;33272;51.922;7.730;2023-11-21T01:54:41;144684.84;;;8.81;100.00
47530;BME280;33272;51.922;7.730;2023-11-21T01:57:09;144691.16;;;8.84;100.00
47530;BME280;33272;51.922;7.730;2023-11-21T01:59:37;144702.53;;;8.88;100.00
47530;BME280;33272;51.922;7.730;2023-11-21T02:02:07;144710.13;;;8.91;100.00
47530;BME280;33272;51.922;7.730;2023-11-21T02:04:35;144713.97;;;8.93;100.00
47530;BME280;33272;51.922;7.730;2023-11-21T02:07:03;144721.56;;;8.96;100.00
47530;BME280;33272;51.922;7.730;2023-11-21T02:09:31;144721.56;;;8.96;100.00
47530;BME280;33272;51.922;7.730;2023-11-21T02:11:59;144721.56;;;8.96;100.00
47530;BME280;33272;51.922;7.730;2023-11-21T02:14:27;144715.22;;;8.93;100.00
47530;BME280;33272;51.922;7.730;2023-11-21T02:16:54;144712.69;;;8.92;100.00
47530;BME280;33272;51.922;7.730;2023-11-21T02:19:24;144706.34;;;8.90;100.00
47530;BME280;33272;51.922;7.730;2023-11-21T02:21:52;144706.34;;;8.90;100.00
47530;BME280;33272;51.922;7.730;2023-11-21T02:24:22;144708.88;;;8.91;100.00
47530;BME280;33272;51.922;7.730;2023-11-21T02:26:49;144715.22;;;8.93;100.00
47530;BME280;33272;51.922;7.730;2023-11-21T02:29:17;144722.81;;;8.96;100.00
47530;BME280;33272;51.922;7.730;2023-11-21T02:31:50;144735.44;;;9.01;100.00
47530;BME280;33272;51.922;7.730;2023-11-21T02:34:17;144739.25;;;9.03;100.00
47530;BME280;33272;51.922;7.730;2023-11-21T02:36:45;144748.13;;;9.07;100.00
47530;BME280;33272;51.922;7.730;2023-11-21T02:39:13;144750.63;;;9.08;100.00
47530;BME280;33272;51.922;7.730;2023-11-21T02:41:41;144750.63;;;9.08;100.00
47530;BME280;33272;51.922;7.730;2023-11-21T02:44:09;144750.63;;;9.08;100.00
47530;BME280;33272;51.922;7.730;2023-11-21T02:46:37;144755.72;;;9.10;100.00
47530;BME280;33272;51.922;7.730;2023-11-21T02:49:05;144759.53;;;9.11;100.00
47530;BME280;33272;51.922;7.730;2023-11-21T02:51:32;144764.56;;;9.13;100.00
47530;BME280;33272;51.922;7.730;2023-11-21T02:54:00;144772.16;;;9.16;100.00
47530;BME280;33272;51.922;7.730;2023-11-21T02:56:29;144775.97;;;9.18;100.00
47530;BME280;33272;51.922;7.730;2023-11-21T02:58:59;144774.69;;;9.17;100.00
47530;BME280;33272;51.922;7.730;2023-11-21T03:01:27;144772.16;;;9.16;100.00
47530;BME280;33272;51.922;7.730;2023-11-21T03:03:54;144770.91;;;9.16;100.00
47530;BME280;33272;51.922;7.730;2023-11-21T03:06:22;144772.16;;;9.16;100.00
47530;BME280;33272;51.922;7.730;2023-11-21T03:08:50;144763.31;;;9.13;100.00
47530;BME280;33272;51.922;7.730;2023-11-21T03:11:17;144758.22;;;9.11;100.00
47530;BME280;33272;51.922;7.730;2023-11-21T03:13:44;144745.59;;;9.05;100.00
47530;BME280;33272;51.922;7.730;2023-11-21T03:16:13;144738.00;;;9.02;100.00
47530;BME280;33272;51.922;7.730;2023-11-21T03:18:40;144724.06;;;8.97;100.00
47530;BME280;33272;51.922;7.730;2023-11-21T03:21:08;144706.34;;;8.90;100.00
47530;BME280;33272;51.922;7.730;2023-11-21T03:23:35;144691.16;;;8.84;100.00
47530;BME280;33272;51.922;7.730;2023-11-21T03:26:02;144681.00;;;8.79;100.00
47530;BME280;33272;51.922;7.730;2023-11-21T03:28:29;144665.88;;;8.73;100.00
47530;BME280;33272;51.922;7.730;2023-11-21T03:30:57;144644.34;;;8.65;100.00
47530;BME280;33272;51.922;7.730;2023-11-21T03:33:25;144630.41;;;8.59;100.00
47530;BME280;33272;51.922;7.730;2023-11-21T03:35:52;144607.63;;;8.50;100.00
47530;BME280;33272;51.922;7.730;2023-11-21T03:38:19;144591.19;;;8.43;100.00
47530;BME280;33272;51.922;7.730;2023-11-21T03:40:46;144575.97;;;8.37;100.00
47530;BME280;33272;51.922;7.730;2023-11-21T03:43:13;144562.03;;;8.31;100.00
47530;BME280;33272;51.922;7.730;2023-11-21T03:45:41;144550.69;;;8.27;100.00
47530;BME280;33272;51.922;7.730;2023-11-21T03:48:08;144543.09;;;8.24;100.00
47530;BME280;33272;51.922;7.730;2023-11-21T03:50:36;144538.00;;;8.22;100.00
47530;BME280;33272;51.922;7.730;2023-11-21T03:53:03;144534.25;;;8.20;100.00
47530;BME280;33272;51.922;7.730;2023-11-21T03:55:30;144534.25;;;8.20;100.00
47530;BME280;33272;51.922;7.730;2023-11-21T03:57:58;144532.97;;;8.20;100.00
47530;BME280;33272;51.922;7.730;2023-11-21T04:00:25;144540.53;;;8.23;100.00
47530;BME280;33272;51.922;7.730;2023-11-21T04:02:52;144540.53;;;8.23;100.00
47530;BME280;33272;51.922;7.730;2023-11-21T04:05:20;144543.09;;;8.24;100.00
47530;BME280;33272;51.922;7.730;2023-11-21T04:07:50;144549.41;;;8.26;100.00
47530;BME280;33272;51.922;7.730;2023-11-21T04:10:17;144563.28;;;8.32;100.00
47530;BME280;33272;51.922;7.730;2023-11-21T04:12:44;144572.19;;;8.35;100.00
47530;BME280;33272;51.922;7.730;2023-11-21T04:15:12;144583.59;;;8.40;100.00
47530;BME280;33272;51.922;7.730;2023-11-21T04:17:40;144587.38;;;8.42;100.00
47530;BME280;33272;51.922;7.730;2023-11-21T04:20:08;144596.28;;;8.45;100.00
47530;BME280;33272;51.922;7.730;2023-11-21T04:22:37;144605.13;;;8.49;100.00
47530;BME280;33272;51.922;7.730;2023-11-21T04:25:08;144615.22;;;8.53;100.00
47530;BME280;33272;51.922;7.730;2023-11-21T04:27:36;144616.50;;;8.53;100.00
47530;BME280;33272;51.922;7.730;2023-11-21T04:30:05;144620.31;;;8.55;100.00
47530;BME280;33272;51.922;7.730;2023-11-21T04:32:33;144636.75;;;8.62;100.00
47530;BME280;33272;51.922;7.730;2023-11-21T04:35:00;144644.34;;;8.65;100.00
47530;BME280;33272;51.922;7.730;2023-11-21T04:37:27;144665.88;;;8.73;100.00
47530;BME280;33272;51.922;7.730;2023-11-21T04:39:54;144673.47;;;8.76;100.00
47530;BME280;33272;51.922;7.730;2023-11-21T04:42:23;144689.91;;;8.83;100.00
47530;BME280;33272;51.922;7.730;2023-11-21T04:44:50;144691.16;;;8.84;100.00
47530;BME280;33272;51.922;7.730;2023-11-21T04:47:18;144692.44;;;8.84;100.00
47530;BME280;33272;51.922;7.730;2023-11-21T04:49:46;144697.50;;;8.86;100.00
47530;BME280;33272;51.922;7.730;2023-11-21T04:52:13;144700.03;;;8.87;100.00
47530;BME280;33272;51.922;7.730;2023-11-21T04:54:40;144701.28;;;8.88;100.00
47530;BME280;33272;51.922;7.730;2023-11-21T04:57:08;144701.28;;;8.88;100.00
47530;BME280;33272;51.922;7.730;2023-11-21T04:59:37;144706.34;;;8.90;100.00
47530;BME280;33272;51.922;7.730;2023-11-21T05:02:04;144711.41;;;8.92;100.00
47530;BME280;33272;51.922;7.730;2023-11-21T05:04:31;144713.97;;;8.93;100.00
47530;BME280;33272;51.922;7.730;2023-11-21T05:06:58;144717.72;;;8.94;100.00
47530;BME280;33272;51.922;7.730;2023-11-21T05:09:26;144722.81;;;8.96;100.00
47530;BME280;33272;51.922;7.730;2023-11-21T05:11:54;144730.41;;;8.99;100.00
47530;BME280;33272;51.922;7.730;2023-11-21T05:14:21;144724.06;;;8.97;100.00
47530;BME280;33272;51.922;7.730;2023-11-21T05:16:49;144735.44;;;9.01;100.00
47530;BME280;33272;51.922;7.730;2023-11-21T05:19:17;144743.03;;;9.04;100.00
47530;BME280;33272;51.922;7.730;2023-11-21T05:21:44;144745.59;;;9.05;100.00
47530;BME280;33272;51.922;7.730;2023-11-21T05:24:13;144749.38;;;9.07;100.00
47530;BME280;33272;51.922;7.730;2023-11-21T05:26:40;144746.84;;;9.06;100.00
47530;BME280;33272;51.922;7.730;2023-11-21T05:29:07;144738.00;;;9.02;100.00
47530;BME280;33272;51.922;7.730;2023-11-21T05:31:35;144734.19;;;9.01;100.00
47530;BME280;33272;51.922;7.730;2023-11-21T05:34:03;144731.66;;;9.00;100.00
47530;BME280;33272;51.922;7.730;2023-11-21T05:36:30;144725.31;;;8.97;100.00
47530;BME280;33272;51.922;7.730;2023-11-21T05:38:57;144724.06;;;8.97;100.00
47530;BME280;33272;51.922;7.730;2023-11-21T05:41:24;144726.59;;;8.98;100.00
47530;BME280;33272;51.922;7.730;2023-11-21T05:43:51;144727.84;;;8.98;100.00
47530;BME280;33272;51.922;7.730;2023-11-21T05:46:19;144724.06;;;8.97;100.00
47530;BME280;33272;51.922;7.730;2023-11-21T05:48:47;144722.81;;;8.96;100.00
47530;BME280;33272;51.922;7.730;2023-11-21T05:51:15;144720.28;;;8.95;100.00
47530;BME280;33272;51.922;7.730;2023-11-21T05:53:43;144712.69;;;8.92;100.00
47530;BME280;33272;51.922;7.730;2023-11-21T05:56:10;144708.88;;;8.91;100.00
47530;BME280;33272;51.922;7.730;2023-11-21T05:58:37;144708.88;;;8.91;100.00
47530;BME280;33272;51.922;7.730;2023-11-21T06:01:06;144707.63;;;8.90;100.00
47530;BME280;33272;51.922;7.730;2023-11-21T06:03:34;144710.13;;;8.91;100.00
47530;BME280;33272;51.922;7.730;2023-11-21T06:06:02;144713.97;;;8.93;100.00
47530;BME280;33272;51.922;7.730;2023-11-21T06:08:31;144725.31;;;8.97;100.00
47530;BME280;33272;51.922;7.730;2023-11-21T06:10:58;144734.19;;;9.01;100.00
47530;BME280;33272;51.922;7.730;2023-11-21T06:13:25;144740.50;;;9.03;100.00
47530;BME280;33272;51.922;7.730;2023-11-21T06:15:52;144746.84;;;9.06;100.00
47530;BME280;33272;51.922;7.730;2023-11-21T06:18:19;144753.19;;;9.09;100.00
47530;BME280;33272;51.922;7.730;2023-11-21T06:20:46;144762.06;;;9.12;100.00
47530;BME280;33272;51.922;7.730;2023-11-21T06:23:13;144762.06;;;9.12;100.00
47530;BME280;33272;51.922;7.730;2023-11-21T06:25:42;144759.53;;;9.11;100.00
47530;BME280;33272;51.922;7.730;2023-11-21T06:28:09;144755.72;;;9.10;100.00
47530;BME280;33272;51.922;7.730;2023-11-21T06:30:36;144750.63;;;9.08;100.00
47530;BME280;33272;51.922;7.730;2023-11-21T06:33:03;144746.84;;;9.06;100.00
47530;BME280;33272;51.922;7.730;2023-11-21T06:35:32;144743.03;;;9.04;100.00
47530;BME280;33272;51.922;7.730;2023-11-21T06:38:00;144746.84;;;9.06;100.00
47530;BME280;33272;51.922;7.730;2023-11-21T06:40:28;144749.38;;;9.07;100.00
47530;BME280;33272;51.922;7.730;2023-11-21T06:42:57;144755.72;;;9.10;100.00
47530;BME280;33272;51.922;7.730;2023-11-21T06:45:24;144754.44;;;9.09;100.00
47530;BME280;33272;51.922;7.730;2023-11-21T06:47:51;144749.38;;;9.07;100.00
47530;BME280;33272;51.922;7.730;2023-11-21T06:50:18;144756.97;;;9.10;100.00
47530;BME280;33272;51.922;7.730;2023-11-21T06:52:46;144763.31;;;9.13;100.00
47530;BME280;33272;51.922;7.730;2023-11-21T06:55:14;144774.69;;;9.17;100.00
47530;BME280;33272;51.922;7.730;2023-11-21T06:57:41;144781.00;;;9.20;100.00
47530;BME280;33272;51.922;7.730;2023-11-21T07:00:11;144788.63;;;9.23;100.00
47530;BME280;33272;51.922;7.730;2023-11-21T07:02:38;144788.63;;;9.23;100.00
47530;BME280;33272;51.922;7.730;2023-11-21T07:05:06;144797.47;;;9.26;100.00
47530;BME280;33272;51.922;7.730;2023-11-21T07:07:33;144802.53;;;9.28;100.00
47530;BME280;33272;51.922;7.730;2023-11-21T07:10:01;144815.22;;;9.34;100.00
47530;BME280;33272;51.922;7.730;2023-11-21T07:12:29;144817.75;;;9.35;100.00
47530;BME280;33272;51.922;7.730;2023-11-21T07:14:56;144816.47;;;9.34;100.00
47530;BME280;33272;51.922;7.730;2023-11-21T07:17:25;144822.81;;;9.37;100.00
47530;BME280;33272;51.922;7.730;2023-11-21T07:19:52;144825.34;;;9.38;100.00
47530;BME280;33272;51.922;7.730;2023-11-21T07:22:19;144832.94;;;9.41;100.00
47530;BME280;33272;51.922;7.730;2023-11-21T07:24:48;144839.28;;;9.43;100.00
47530;BME280;33272;51.922;7.730;2023-11-21T07:27:16;144843.06;;;9.45;100.00
47530;BME280;33272;51.922;7.730;2023-11-21T07:29:44;144845.63;;;9.46;100.00
47530;BME280;33272;51.922;7.730;2023-11-21T07:32:11;144844.31;;;9.45;100.00
47530;BME280;33272;51.922;7.730;2023-11-21T07:34:40;144843.06;;;9.45;100.00
47530;BME280;33272;51.922;7.730;2023-11-21T07:37:07;144845.63;;;9.46;100.00
47530;BME280;33272;51.922;7.730;2023-11-21T07:39:34;144854.47;;;9.49;100.00
47530;BME280;33272;51.922;7.730;2023-11-21T07:42:02;144867.09;;;9.55;100.00
47530;BME280;33272;51.922;7.730;2023-11-21T07:44:30;144875.97;;;9.58;100.00
47530;BME280;33272;51.922;7.730;2023-11-21T07:46:57;144882.31;;;9.61;100.00
47530;BME280;33272;51.922;7.730;2023-11-21T07:49:24;144913.97;;;9.73;100.00
47530;BME280;33272;51.922;7.730;2023-11-21T07:51:53;144920.31;;;9.76;100.00
47530;BME280;33272;51.922;7.730;2023-11-21T07:54:20;144910.19;;;9.72;100.00
47530;BME280;33272;51.922;7.730;2023-11-21T07:56:48;144913.97;;;9.73;100.00
47530;BME280;33272;51.922;7.730;2023-11-21T07:59:15;144913.97;;;9.73;100.00
47530;BME280;33272;51.922;7.730;2023-11-21T08:01:42;144917.78;;;9.75;100.00
47530;BME280;33272;51.922;7.730;2023-11-21T08:04:11;144921.56;;;9.77;100.00
47530;BME280;33272;51.922;7.730;2023-11-21T08:06:38;144920.31;;;9.76;100.00
47530;BME280;33272;51.922;7.730;2023-11-21T08:09:08;144925.41;;;9.78;100.00
47530;BME280;33272;51.922;7.730;2023-11-21T08:11:36;144939.34;;;9.84;100.00
47530;BME280;33272;51.922;7.730;2023-11-21T08:14:04;144954.53;;;9.90;100.00
47530;BME280;33272;51.922;7.730;2023-11-21T08:16:30;144964.66;;;9.94;100.00
47530;BME280;33272;51.922;7.730;2023-11-21T08:18:58;144987.47;;;10.03;100.00
47530;BME280;33272;51.922;7.730;2023-11-21T08:21:25;144996.31;;;10.07;100.00
47530;BME280;33272;51.922;7.730;2023-11-21T08:23:52;145001.41;;;10.09;100.00
47530;BME280;33272;51.922;7.730;2023-11-21T08:26:22;144995.06;;;10.06;100.00
47530;BME280;33272;51.922;7.730;2023-11-21T08:28:49;145011.53;;;10.13;100.00
47530;BME280;33272;51.922;7.730;2023-11-21T08:31:25;145021.66;;;10.17;100.00
47530;BME280;33272;51.922;7.730;2023-11-21T08:33:52;145019.13;;;10.16;100.00
47530;BME280;33272;51.922;7.730;2023-11-21T08:36:21;145008.97;;;10.12;100.00
47530;BME280;33272;51.922;7.730;2023-11-21T08:38:48;145011.53;;;10.13;100.00
47530;BME280;33272;51.922;7.730;2023-11-21T08:41:18;145019.13;;;10.16;100.00
47530;BME280;33272;51.922;7.730;2023-11-21T08:43:49;145029.25;;;10.20;100.00
47530;BME280;33272;51.922;7.730;2023-11-21T08:46:16;145012.78;;;10.13;100.00
47530;BME280;33272;51.922;7.730;2023-11-21T08:48:43;145014.06;;;10.14;100.00
47530;BME280;33272;51.922;7.730;2023-11-21T08:51:11;145026.75;;;10.19;100.00
47530;BME280;33272;51.922;7.730;2023-11-21T08:53:39;145040.69;;;10.25;100.00
47530;BME280;33272;51.922;7.730;2023-11-21T08:56:07;145073.66;;;10.38;100.00
47530;BME280;33272;51.922;7.730;2023-11-21T08:58:35;145081.28;;;10.41;100.00
47530;BME280;33272;51.922;7.730;2023-11-21T09:01:05;145095.22;;;10.47;100.00
47530;BME280;33272;51.922;7.730;2023-11-21T09:03:32;145104.09;;;10.50;100.00
47530;BME280;33272;51.922;7.730;2023-11-21T09:06:00;145111.69;;;10.53;100.00
47530;BME280;33272;51.922;7.730;2023-11-21T09:08:27;145119.31;;;10.56;100.00
47530;BME280;33272;51.922;7.730;2023-11-21T09:10:55;145129.44;;;10.60;100.00
47530;BME280;33272;51.922;7.730;2023-11-21T09:13:22;145130.69;;;10.61;100.00
47530;BME280;33272;51.922;7.730;2023-11-21T09:15:50;145125.59;;;10.59;100.00
47530;BME280;33272;51.922;7.730;2023-11-21T09:18:19;145120.56;;;10.57;100.00
47530;BME280;33272;51.922;7.730;2023-11-21T09:20:46;145119.31;;;10.56;100.00
47530;BME280;33272;51.922;7.730;2023-11-21T09:23:13;145124.34;;;10.58;100.00
47530;BME280;33272;51.922;7.730;2023-11-21T09:25:40;145121.81;;;10.57;100.00
47530;BME280;33272;51.922;7.730;2023-11-21T09:28:07;145123.09;;;10.58;100.00
47530;BME280;33272;51.922;7.730;2023-11-21T09:30:34;145128.16;;;10.60;100.00
47530;BME280;33272;51.922;7.730;2023-11-21T09:33:01;145129.44;;;10.60;100.00
47530;BME280;33272;51.922;7.730;2023-11-21T09:35:30;145128.16;;;10.60;100.00
47530;BME280;33272;51.922;7.730;2023-11-21T09:37:57;145124.34;;;10.58;100.00
47530;BME280;33272;51.922;7.730;2023-11-21T09:40:24;145125.59;;;10.59;100.00
47530;BME280;33272;51.922;7.730;2023-11-21T09:42:55;145121.81;;;10.57;100.00
47530;BME280;33272;51.922;7.730;2023-11-21T09:45:26;145124.34;;;10.58;100.00
47530;BME280;33272;51.922;7.730;2023-11-21T09:47:55;145137.03;;;10.63;100.00
47530;BME280;33272;51.922;7.730;2023-11-21T09:50:23;145143.38;;;10.66;100.00
47530;BME280;33272;51.922;7.730;2023-11-21T09:53:02;145152.25;;;10.70;100.00
47530;BME280;33272;51.922;7.730;2023-11-21T09:55:35;145157.28;;;10.72;100.00
47530;BME280;33272;51.922;7.730;2023-11-21T09:58:03;145163.63;;;10.74;100.00
47530;BME280;33272;51.922;7.730;2023-11-21T10:00:33;145159.84;;;10.73;100.00
47530;BME280;33272;51.922;7.730;2023-11-21T10:03:01;145159.84;;;10.73;100.00
47530;BME280;33272;51.922;7.730;2023-11-21T10:05:28;145163.63;;;10.74;100.00
47530;BME280;33272;51.922;7.730;2023-11-21T10:08:00;145173.81;;;10.78;100.00
47530;BME280;33272;51.922;7.730;2023-11-21T10:10:28;145185.19;;;10.83;100.00
47530;BME280;33272;51.922;7.730;2023-11-21T10:12:57;145202.94;;;10.90;100.00
47530;BME280;33272;51.922;7.730;2023-11-21T10:15:29;145224.50;;;10.99;100.00
47530;BME280;33272;51.922;7.730;2023-11-21T10:18:00;145230.84;;;11.01;100.00
47530;BME280;33272;51.922;7.730;2023-11-21T10:20:29;145238.44;;;11.04;100.00
47530;BME280;33272;51.922;7.730;2023-11-21T10:22:56;145238.44;;;11.04;100.00
47530;BME280;33272;51.922;7.730;2023-11-21T10:25:25;145249.84;;;11.09;100.00
47530;BME280;33272;51.922;7.730;2023-11-21T10:27:58;145240.97;;;11.05;100.00
47530;BME280;33272;51.922;7.730;2023-11-21T10:30:33;145242.22;;;11.06;100.00
47530;BME280;33272;51.922;7.730;2023-11-21T10:33:03;145242.22;;;11.06;100.00
47530;BME280;33272;51.922;7.730;2023-11-21T10:35:43;145246.06;;;11.07;100.00
47530;BME280;33272;51.922;7.730;2023-11-21T10:38:12;145235.88;;;11.03;100.00
47530;BME280;33272;51.922;7.730;2023-11-21T10:40:41;145229.59;;;11.01;100.00
47530;BME280;33272;51.922;7.730;2023-11-21T10:43:13;145224.50;;;10.99;100.00
47530;BME280;33272;51.922;7.730;2023-11-21T10:45:41;145221.97;;;10.98;100.00
47530;BME280;33272;51.922;7.730;2023-11-21T10:48:10;145227.00;;;11.00;100.00
47530;BME280;33272;51.922;7.730;2023-11-21T10:50:41;145214.38;;;10.95;100.00
47530;BME280;33272;51.922;7.730;2023-11-21T10:53:09;145214.38;;;10.95;100.00
47530;BME280;33272;51.922;7.730;2023-11-21T10:55:37;145210.53;;;10.93;100.00
47530;BME280;33272;51.922;7.730;2023-11-21T10:58:06;145197.88;;;10.88;100.00
47530;BME280;33272;51.922;7.730;2023-11-21T11:00:36;145194.06;;;10.86;100.00
47530;BME280;33272;51.922;7.730;2023-11-21T11:03:06;145194.06;;;10.86;100.00
47530;BME280;33272;51.922;7.730;2023-11-21T11:05:41;145192.81;;;10.86;100.00
47530;BME280;33272;51.922;7.730;2023-11-21T11:08:13;145192.81;;;10.86;100.00
47530;BME280;33272;51.922;7.730;2023-11-21T11:10:44;145201.66;;;10.89;100.00
47530;BME280;33272;51.922;7.730;2023-11-21T11:13:13;145195.31;;;10.87;100.00
47530;BME280;33272;51.922;7.730;2023-11-21T11:15:41;145196.56;;;10.87;100.00
47530;BME280;33272;51.922;7.730;2023-11-21T11:18:10;145186.47;;;10.83;100.00
47530;BME280;33272;51.922;7.730;2023-11-21T11:20:40;145185.19;;;10.83;100.00
47530;BME280;33272;51.922;7.730;2023-11-21T11:23:27;145185.19;;;10.83;100.00
47530;BME280;33272;51.922;7.730;2023-11-21T11:26:12;145188.97;;;10.84;100.00
47530;BME280;33272;51.922;7.730;2023-11-21T11:28:57;145197.88;;;10.88;100.00
47530;BME280;33272;51.922;7.730;2023-11-21T11:31:40;145196.56;;;10.87;100.00
47530;BME280;33272;51.922;7.730;2023-11-21T11:34:26;145200.41;;;10.89;100.00
47530;BME280;33272;51.922;7.730;2023-11-21T11:37:01;145211.78;;;10.94;100.00
47530;BME280;33272;51.922;7.730;2023-11-21T11:39:30;145216.88;;;10.96;100.00
47530;BME280;33272;51.922;7.730;2023-11-21T11:41:58;145221.97;;;10.98;100.00
47530;BME280;33272;51.922;7.730;2023-11-21T11:44:50;145223.22;;;10.98;100.00
47530;BME280;33272;51.922;7.730;2023-11-21T11:47:24;145221.97;;;10.98;100.00
47530;BME280;33272;51.922;7.730;2023-11-21T11:49:59;145225.75;;;10.99;100.00
47530;BME280;33272;51.922;7.730;2023-11-21T11:52:39;145219.41;;;10.97;100.00
47530;BME280;33272;51.922;7.730;2023-11-21T11:55:08;145223.22;;;10.98;100.00
47530;BME280;33272;51.922;7.730;2023-11-21T11:57:41;145221.97;;;10.98;100.00
47530;BME280;33272;51.922;7.730;2023-11-21T12:00:15;145225.75;;;10.99;100.00
47530;BME280;33272;51.922;7.730;2023-11-21T12:02:46;145229.59;;;11.01;100.00
47530;BME280;33272;51.922;7.730;2023-11-21T12:05:14;145224.50;;;10.99;100.00
47530;BME280;33272;51.922;7.730;2023-11-21T12:07:49;145219.41;;;10.97;100.00
47530;BME280;33272;51.922;7.730;2023-11-21T12:10:20;145215.63;;;10.95;100.00
47530;BME280;33272;51.922;7.730;2023-11-21T12:12:50;145201.66;;;10.89;100.00
47530;BME280;33272;51.922;7.730;2023-11-21T12:15:20;145191.53;;;10.85;100.00
47530;BME280;33272;51.922;7.730;2023-11-21T12:17:48;145187.72;;;10.84;100.00
47530;BME280;33272;51.922;7.730;2023-11-21T12:20:18;145194.06;;;10.86;100.00
47530;BME280;33272;51.922;7.730;2023-11-21T12:22:47;145196.56;;;10.87;100.00
47530;BME280;33272;51.922;7.730;2023-11-21T12:25:15;145200.41;;;10.89;100.00
47530;BME280;33272;51.922;7.730;2023-11-21T12:27:45;145201.66;;;10.89;100.00
47530;BME280;33272;51.922;7.730;2023-11-21T12:30:13;145205.50;;;10.91;100.00
47530;BME280;33272;51.922;7.730;2023-11-21T12:32:43;145205.50;;;10.91;100.00
47530;BME280;33272;51.922;7.730;2023-11-21T12:35:12;145206.75;;;10.92;100.00
47530;BME280;33272;51.922;7.730;2023-11-21T12:37:40;145205.50;;;10.91;100.00
47530;BME280;33272;51.922;7.730;2023-11-21T12:40:10;145192.81;;;10.86;100.00
47530;BME280;33272;51.922;7.730;2023-11-21T12:42:39;145177.59;;;10.80;100.00
47530;BME280;33272;51.922;7.730;2023-11-21T12:45:10;145156.03;;;10.71;100.00
47530;BME280;33272;51.922;7.730;2023-11-21T12:47:43;145135.78;;;10.63;100.00
47530;BME280;33272;51.922;7.730;2023-11-21T12:50:11;145124.34;;;10.58;100.00
47530;BME280;33272;51.922;7.730;2023-11-21T12:52:45;145118.00;;;10.56;100.00